Time;durP1;ratioP1;P1;durP2;ratioP2;P2;SDS_P1;SDS_P2;PMS_P1;PMS_P2;Temp;Humidity;BMP_temperature;BMP_pressure;BME280_temperature;BME280_humidity;BME280_pressure;Samples;Min_cycle;Max_cycle;Signal;HPM_P1;HPM_P2
2021/10/14 00:02:16;;;;;;;;;;;;;;;5.23;100.00;100630.88;1616355;87;20688;-77
2021/10/14 00:04:43;;;;;;;;;;;;;;;5.15;100.00;100631.42;1613690;87;20121;-76
2021/10/14 00:07:12;;;;;;;;;;;;;;;5.14;100.00;100629.74;1615675;87;20204;-77
2021/10/14 00:09:39;;;;;;;;;;;;;;;5.18;100.00;100629.90;1614875;87;20904;-76
2021/10/14 00:12:05;;;;;;;;;;;;;;;5.14;100.00;100624.50;1615455;87;20197;-76
2021/10/14 00:14:33;;;;;;;;;;;;;;;5.16;100.00;100623.95;1593028;87;20147;-77
2021/10/14 00:17:01;;;;;;;;;;;;;;;5.14;100.00;100631.05;1613021;87;20168;-77
2021/10/14 00:19:26;;;;;;;;;;;;;;;5.19;100.00;100626.34;1614945;87;20180;-77
2021/10/14 00:21:53;;;;;;;;;;;;;;;5.20;100.00;100621.45;1615783;87;21978;-77
2021/10/14 00:24:19;;;;;;;;;;;;;;;5.18;100.00;100629.90;1615655;87;20163;-77
2021/10/14 00:26:46;;;;;;;;;;;;;;;5.17;100.00;100627.77;1613951;87;20772;-75
2021/10/14 00:29:13;;;;;;;;;;;;;;;5.11;100.00;100632.12;1613137;87;20189;-77
2021/10/14 00:31:39;;;;;;;;;;;;;;;5.17;100.00;100626.91;1613013;87;20200;-77
2021/10/14 00:34:07;;;;;;;;;;;;;;;5.14;100.00;100634.98;1616445;87;20640;-77
2021/10/14 00:36:33;;;;;;;;;;;;;;;5.08;100.00;100630.17;1613041;87;20251;-76
2021/10/14 00:38:59;;;;;;;;;;;;;;;5.06;100.00;100622.44;1614228;87;20180;-77
2021/10/14 00:41:25;;;;;;;;;;;;;;;5.07;100.00;100624.12;1593369;88;20165;-76
2021/10/14 00:43:56;;;;;;;;;;;;;;;5.12;100.00;100631.64;1615116;87;20477;-77
2021/10/14 00:46:23;;;;;;;;;;;;;;;5.13;100.00;100630.71;1614251;87;21127;-76
2021/10/14 00:48:49;;;;;;;;;;;;;;;5.07;100.00;100631.14;1617543;87;20227;-77
2021/10/14 00:51:15;;;;;;;;;;;;;;;5.10;100.00;100629.62;1615384;87;20776;-76
2021/10/14 00:53:42;;;;;;;;;;;;;;;5.02;100.00;100629.67;1615005;87;20883;-76
2021/10/14 00:56:10;;;;;;;;;;;;;;;4.99;100.00;100635.12;1615323;87;20153;-77
2021/10/14 00:58:36;;;;;;;;;;;;;;;5.02;100.00;100632.30;1616641;87;21048;-77
2021/10/14 01:01:09;;;;;;;;;;;;;;;5.06;100.00;100629.46;1618413;87;20786;-77
2021/10/14 01:03:36;;;;;;;;;;;;;;;5.07;100.00;100619.36;1619738;87;20150;-75
2021/10/14 01:06:02;;;;;;;;;;;;;;;5.08;100.00;100626.25;1594307;87;20196;-76
2021/10/14 01:08:27;;;;;;;;;;;;;;;5.02;100.00;100623.13;1593244;88;21239;-76
2021/10/14 01:10:55;;;;;;;;;;;;;;;4.99;100.00;100623.34;1620129;87;21832;-76
2021/10/14 01:13:22;;;;;;;;;;;;;;;4.99;100.00;100619.91;1621377;87;20525;-76
2021/10/14 01:15:48;;;;;;;;;;;;;;;4.94;100.00;100624.16;1623331;87;20170;-76
2021/10/14 01:18:16;;;;;;;;;;;;;;;4.93;100.00;100619.86;1622019;87;20205;-77
2021/10/14 01:20:45;;;;;;;;;;;;;;;4.90;100.00;100620.55;1592015;87;20241;-77
2021/10/14 01:23:14;;;;;;;;;;;;;;;4.88;100.00;100627.20;1591020;87;21586;-77
2021/10/14 01:25:42;;;;;;;;;;;;;;;4.87;100.00;100616.84;1620781;87;20508;-78
2021/10/14 01:28:08;;;;;;;;;;;;;;;4.86;100.00;100623.84;1618848;87;20221;-77
2021/10/14 01:30:35;;;;;;;;;;;;;;;4.91;100.00;100619.14;1590233;88;21406;-77
2021/10/14 01:33:02;;;;;;;;;;;;;;;4.90;100.00;100618.77;1593966;87;20144;-77
2021/10/14 01:35:28;;;;;;;;;;;;;;;4.91;100.00;100613.91;1624926;87;21169;-77
2021/10/14 01:37:55;;;;;;;;;;;;;;;4.94;100.00;100620.23;1624229;87;20217;-77
2021/10/14 01:40:23;;;;;;;;;;;;;;;4.84;100.00;100615.27;1623352;87;20141;-77
2021/10/14 01:42:48;;;;;;;;;;;;;;;4.89;100.00;100618.39;1594205;87;20168;-77
2021/10/14 01:45:19;;;;;;;;;;;;;;;4.89;100.00;100617.08;1623612;86;20345;-77
2021/10/14 01:47:46;;;;;;;;;;;;;;;4.88;100.00;100614.13;1620947;87;20140;-73
2021/10/14 01:50:15;;;;;;;;;;;;;;;4.86;100.00;100614.67;1620437;87;20174;-75
2021/10/14 01:52:45;;;;;;;;;;;;;;;4.79;100.00;100612.14;1622399;87;20176;-78
2021/10/14 01:55:12;;;;;;;;;;;;;;;4.84;100.00;100613.48;1621581;87;20451;-77
2021/10/14 01:57:37;;;;;;;;;;;;;;;4.76;100.00;100623.66;1589572;87;20268;-77
2021/10/14 02:00:07;;;;;;;;;;;;;;;4.72;100.00;100630.03;1623340;87;21081;-77
2021/10/14 02:02:33;;;;;;;;;;;;;;;4.66;100.00;100628.70;1591368;88;20652;-78
2021/10/14 02:05:03;;;;;;;;;;;;;;;4.60;100.00;100636.97;1612420;87;20291;-77
2021/10/14 02:07:28;;;;;;;;;;;;;;;4.66;100.00;100639.16;1613978;87;20201;-78
2021/10/14 02:09:54;;;;;;;;;;;;;;;4.68;100.00;100629.41;1612160;87;20372;-77
2021/10/14 02:12:22;;;;;;;;;;;;;;;4.62;100.00;100640.30;1610537;87;20905;-78
2021/10/14 02:14:48;;;;;;;;;;;;;;;4.58;100.00;100636.21;1609280;87;20166;-78
2021/10/14 02:17:17;;;;;;;;;;;;;;;4.67;100.00;100632.97;1612779;88;20279;-78
2021/10/14 02:19:43;;;;;;;;;;;;;;;4.57;100.00;100643.72;1612113;88;20210;-78
2021/10/14 02:22:11;;;;;;;;;;;;;;;4.57;100.00;100639.80;1591718;88;20152;-77
2021/10/14 02:24:38;;;;;;;;;;;;;;;4.53;100.00;100641.41;1593609;88;21568;-78
2021/10/14 02:27:04;;;;;;;;;;;;;;;4.55;100.00;100643.44;1615975;87;20135;-77
2021/10/14 02:29:31;;;;;;;;;;;;;;;4.50;100.00;100645.06;1615464;87;20766;-77
2021/10/14 02:32:00;;;;;;;;;;;;;;;4.47;100.00;100646.58;1613919;88;20209;-76
2021/10/14 02:34:28;;;;;;;;;;;;;;;4.44;100.00;100649.41;1610069;87;21123;-78
2021/10/14 02:36:55;;;;;;;;;;;;;;;4.40;100.00;100658.42;1610382;87;21089;-78
2021/10/14 02:39:22;;;;;;;;;;;;;;;4.30;100.00;100657.73;1613513;87;20244;-77
2021/10/14 02:41:49;;;;;;;;;;;;;;;4.30;100.00;100658.17;1614279;87;20125;-78
2021/10/14 02:44:16;;;;;;;;;;;;;;;4.30;100.00;100661.66;1613125;87;20479;-77
2021/10/14 02:46:42;;;;;;;;;;;;;;;4.21;100.00;100667.49;1611617;87;20201;-78
2021/10/14 02:49:12;;;;;;;;;;;;;;;4.18;100.00;100671.62;1613421;87;21210;-78
2021/10/14 02:51:39;;;;;;;;;;;;;;;4.16;100.00;100668.25;1615074;87;20459;-78
2021/10/14 02:54:06;;;;;;;;;;;;;;;4.14;100.00;100672.75;1592640;88;20192;-78
2021/10/14 02:56:34;;;;;;;;;;;;;;;4.16;100.00;100673.48;1611868;87;20213;-77
2021/10/14 02:59:00;;;;;;;;;;;;;;;4.17;100.00;100679.08;1595757;88;20188;-78
2021/10/14 03:01:26;;;;;;;;;;;;;;;4.15;100.00;100686.20;1617071;87;21211;-77
2021/10/14 03:03:55;;;;;;;;;;;;;;;4.15;100.00;100686.20;1620766;87;20208;-77
2021/10/14 03:06:21;;;;;;;;;;;;;;;4.10;100.00;100687.81;1621344;87;20185;-77
2021/10/14 03:08:49;;;;;;;;;;;;;;;4.12;100.00;100689.84;1622179;87;20145;-77
2021/10/14 03:11:17;;;;;;;;;;;;;;;4.11;100.00;100697.78;1624105;87;21102;-78
2021/10/14 03:13:42;;;;;;;;;;;;;;;4.00;100.00;100712.03;1620289;87;21183;-77
2021/10/14 03:16:08;;;;;;;;;;;;;;;3.87;100.00;100702.38;1620563;87;20319;-78
2021/10/14 03:18:36;;;;;;;;;;;;;;;3.91;100.00;100705.14;1622663;87;20469;-78
2021/10/14 03:21:05;;;;;;;;;;;;;;;3.92;100.00;100700.77;1617539;87;20172;-78
2021/10/14 03:23:32;;;;;;;;;;;;;;;3.89;100.00;100713.55;1615533;87;20208;-78
2021/10/14 03:25:58;;;;;;;;;;;;;;;3.85;100.00;100710.76;1618205;87;21019;-78
2021/10/14 03:28:24;;;;;;;;;;;;;;;3.83;100.00;100717.86;1619210;87;20750;-78
2021/10/14 03:30:49;;;;;;;;;;;;;;;3.84;100.00;100713.47;1618997;86;20136;-78
2021/10/14 03:33:15;;;;;;;;;;;;;;;3.89;100.00;100709.63;1622885;86;20137;-77
2021/10/14 03:35:43;;;;;;;;;;;;;;;3.98;100.00;100715.19;1620989;86;20160;-77
2021/10/14 03:38:11;;;;;;;;;;;;;;;3.95;100.00;100717.08;1625601;87;21190;-77
2021/10/14 03:40:36;;;;;;;;;;;;;;;3.81;100.00;100721.05;1621506;86;20136;-77
2021/10/14 03:43:02;;;;;;;;;;;;;;;3.81;100.00;100714.97;1591617;87;20455;-77
2021/10/14 03:45:29;;;;;;;;;;;;;;;3.86;100.00;100715.05;1623813;86;20191;-77
2021/10/14 03:47:55;;;;;;;;;;;;;;;3.92;100.00;100706.82;1620703;86;20218;-77
2021/10/14 03:50:23;;;;;;;;;;;;;;;4.06;100.00;100707.23;1621142;87;21166;-77
2021/10/14 03:52:48;;;;;;;;;;;;;;;3.97;100.00;100711.75;1621484;87;20479;-77
2021/10/14 03:55:17;;;;;;;;;;;;;;;3.94;100.00;100716.70;1620890;87;20169;-75
2021/10/14 03:57:45;;;;;;;;;;;;;;;3.98;100.00;100712.58;1612635;87;20579;-77
2021/10/14 04:00:12;;;;;;;;;;;;;;;4.01;100.00;100713.23;1623460;86;20180;-76
2021/10/14 04:02:39;;;;;;;;;;;;;;;3.94;100.00;100718.00;1614062;87;21121;-76
2021/10/14 04:05:06;;;;;;;;;;;;;;;3.97;100.00;100714.36;1600032;86;20223;-77
2021/10/14 04:07:34;;;;;;;;;;;;;;;3.93;100.00;100703.28;1616581;87;20457;-77
2021/10/14 04:10:00;;;;;;;;;;;;;;;4.01;100.00;100709.31;1612414;87;20283;-76
2021/10/14 04:12:30;;;;;;;;;;;;;;;4.01;100.00;100709.77;1613964;87;20148;-77
2021/10/14 04:14:55;;;;;;;;;;;;;;;4.01;100.00;100711.07;1614530;87;21266;-77
2021/10/14 04:17:23;;;;;;;;;;;;;;;3.99;100.00;100712.48;1612750;87;20362;-76
2021/10/14 04:19:52;;;;;;;;;;;;;;;3.91;100.00;100718.20;1607064;87;20159;-76
2021/10/14 04:22:21;;;;;;;;;;;;;;;3.88;100.00;100721.01;1615057;87;20169;-77
2021/10/14 04:24:50;;;;;;;;;;;;;;;3.72;100.00;100720.34;1588012;87;20198;-77
2021/10/14 04:27:17;;;;;;;;;;;;;;;3.55;100.00;100727.45;1612181;87;22108;-76
2021/10/14 04:29:45;;;;;;;;;;;;;;;3.59;100.00;100723.72;1610589;87;20154;-76
2021/10/14 04:32:16;;;;;;;;;;;;;;;3.56;100.00;100727.83;1610145;87;20163;-77
2021/10/14 04:34:42;;;;;;;;;;;;;;;3.50;100.00;100725.61;1608418;87;21336;-77
2021/10/14 04:37:08;;;;;;;;;;;;;;;3.59;100.00;100735.48;1590986;88;20219;-77
2021/10/14 04:39:36;;;;;;;;;;;;;;;3.53;100.00;100737.17;1593591;88;21048;-78
2021/10/14 04:42:05;;;;;;;;;;;;;;;3.55;100.00;100739.20;1610757;87;20219;-77
2021/10/14 04:44:30;;;;;;;;;;;;;;;3.51;100.00;100735.13;1585250;87;20491;-78
2021/10/14 04:46:59;;;;;;;;;;;;;;;3.52;100.00;100735.48;1612601;88;20141;-78
2021/10/14 04:49:28;;;;;;;;;;;;;;;3.63;100.00;100733.98;1613961;87;20228;-76
2021/10/14 04:51:56;;;;;;;;;;;;;;;3.69;100.00;100734.89;1615509;87;20169;-75
2021/10/14 04:54:25;;;;;;;;;;;;;;;3.71;100.00;100731.70;1612747;88;20124;-77
2021/10/14 04:56:57;;;;;;;;;;;;;;;3.71;100.00;100737.80;1614147;87;20185;-78
2021/10/14 04:59:24;;;;;;;;;;;;;;;3.59;100.00;100736.78;1611590;87;20164;-76
2021/10/14 05:01:52;;;;;;;;;;;;;;;3.58;100.00;100727.26;1593427;87;20147;-76
2021/10/14 05:04:19;;;;;;;;;;;;;;;3.41;100.00;100734.02;1615162;87;20488;-77
2021/10/14 05:06:49;;;;;;;;;;;;;;;3.38;100.00;100738.13;1613645;87;20200;-76
2021/10/14 05:09:22;;;;;;;;;;;;;;;3.45;100.00;100736.81;1614440;87;20157;-84
2021/10/14 05:11:49;;;;;;;;;;;;;;;3.41;100.00;100735.32;1611873;87;20213;-76
2021/10/14 05:14:15;;;;;;;;;;;;;;;3.48;100.00;100737.93;1614701;87;20487;-78
2021/10/14 05:16:42;;;;;;;;;;;;;;;3.46;100.00;100743.70;1614505;87;21133;-78
2021/10/14 05:19:11;;;;;;;;;;;;;;;3.54;100.00;100746.69;1614739;87;20193;-78
2021/10/14 05:21:43;;;;;;;;;;;;;;;3.41;100.00;100743.16;1613933;87;20479;-78
2021/10/14 05:24:08;;;;;;;;;;;;;;;3.26;100.00;100757.15;1589356;88;20130;-79
2021/10/14 05:26:35;;;;;;;;;;;;;;;3.20;100.00;100754.44;1589981;87;20380;-77
2021/10/14 05:29:01;;;;;;;;;;;;;;;3.13;100.00;100756.59;1613941;87;21954;-77
2021/10/14 05:31:29;;;;;;;;;;;;;;;3.07;100.00;100757.44;1614582;87;20188;-78
2021/10/14 05:33:54;;;;;;;;;;;;;;;3.06;100.00;100760.48;1615663;87;20184;-78
2021/10/14 05:36:20;;;;;;;;;;;;;;;3.14;100.00;100759.58;1614972;87;20113;-80
2021/10/14 05:38:46;;;;;;;;;;;;;;;3.06;100.00;100755.27;1590408;87;20173;-75
2021/10/14 05:41:11;;;;;;;;;;;;;;;3.04;100.00;100763.66;1612313;87;21068;-81
2021/10/14 05:43:39;;;;;;;;;;;;;;;3.10;100.00;100754.16;1586241;88;20650;-76
2021/10/14 05:46:06;;;;;;;;;;;;;;;3.11;100.00;100755.85;1613261;87;20307;-77
2021/10/14 05:48:38;;;;;;;;;;;;;;;3.11;100.00;100759.77;1614432;87;20117;-81
2021/10/14 05:51:04;;;;;;;;;;;;;;;3.08;100.00;100761.26;1612216;87;20158;-77
2021/10/14 05:53:29;;;;;;;;;;;;;;;3.12;100.00;100760.12;1609571;87;21179;-77
2021/10/14 05:55:56;;;;;;;;;;;;;;;3.10;100.00;100765.91;1614529;87;20233;-77
2021/10/14 05:58:23;;;;;;;;;;;;;;;3.03;100.00;100749.80;1609205;87;20164;-76
2021/10/14 06:00:49;;;;;;;;;;;;;;;3.17;100.00;100764.62;1611295;87;20244;-76
2021/10/14 06:03:18;;;;;;;;;;;;;;;3.08;100.00;100764.31;1615716;87;20841;-77
2021/10/14 06:05:45;;;;;;;;;;;;;;;3.10;100.00;100761.17;1614733;87;20176;-77
2021/10/14 06:08:13;;;;;;;;;;;;;;;3.12;100.00;100774.47;1618766;87;20152;-77
2021/10/14 06:10:38;;;;;;;;;;;;;;;3.14;100.00;100770.02;1588376;88;20148;-77
2021/10/14 06:13:06;;;;;;;;;;;;;;;3.22;100.00;100765.16;1621488;87;20258;-76
2021/10/14 06:15:35;;;;;;;;;;;;;;;3.32;100.00;100761.99;1609209;87;20184;-77
2021/10/14 06:18:00;;;;;;;;;;;;;;;3.29;100.00;100760.40;1616589;87;21128;-76
2021/10/14 06:20:26;;;;;;;;;;;;;;;3.44;100.00;100762.55;1618570;87;20938;-77
2021/10/14 06:22:53;;;;;;;;;;;;;;;3.56;100.00;100759.17;1611752;87;20173;-77
2021/10/14 06:25:19;;;;;;;;;;;;;;;3.72;100.00;100758.20;1585415;88;20281;-77
2021/10/14 06:27:48;;;;;;;;;;;;;;;3.78;100.00;100764.35;1606040;87;20242;-77
2021/10/14 06:30:17;;;;;;;;;;;;;;;3.71;100.00;100763.05;1619008;87;21157;-77
2021/10/14 06:32:47;;;;;;;;;;;;;;;3.84;100.00;100754.82;1618667;87;20166;-77
2021/10/14 06:35:16;;;;;;;;;;;;;;;3.90;100.00;100763.58;1613301;87;20085;-78
2021/10/14 06:37:42;;;;;;;;;;;;;;;4.03;100.00;100761.48;1619318;87;20270;-77
2021/10/14 06:40:10;;;;;;;;;;;;;;;4.07;100.00;100764.25;1621918;87;20501;-77
2021/10/14 06:42:37;;;;;;;;;;;;;;;4.01;100.00;100764.64;1611542;87;21183;-78
2021/10/14 06:45:03;;;;;;;;;;;;;;;4.00;100.00;100770.83;1597997;88;20197;-77
2021/10/14 06:47:32;;;;;;;;;;;;;;;4.07;100.00;100769.03;1615862;87;20211;-79
2021/10/14 06:50:00;;;;;;;;;;;;;;;4.07;100.00;100774.70;1608881;88;20100;-81
2021/10/14 06:52:25;;;;;;;;;;;;;;;4.15;100.00;100772.45;1606509;87;20188;-79
2021/10/14 06:54:55;;;;;;;;;;;;;;;4.25;100.00;100768.28;1592704;88;21862;-78
2021/10/14 06:57:22;;;;;;;;;;;;;;;4.38;100.00;100764.87;1609615;87;20117;-80
2021/10/14 06:59:47;;;;;;;;;;;;;;;4.54;100.00;100760.31;1588202;88;20188;-77
2021/10/14 07:02:13;;;;;;;;;;;;;;;4.71;100.00;100769.66;1585348;89;20137;-79
2021/10/14 07:04:44;;;;;;;;;;;;;;;4.72;100.00;100762.63;1585008;90;20219;-80
2021/10/14 07:07:13;;;;;;;;;;;;;;;4.87;100.00;100769.45;1588659;89;20168;-79
2021/10/14 07:09:41;;;;;;;;;;;;;;;4.90;100.00;100772.34;1587410;89;20169;-76
2021/10/14 07:12:13;;;;;;;;;;;;;;;4.93;100.00;100774.27;1584174;88;20124;-81
2021/10/14 07:14:44;;;;;;;;;;;;;;;5.09;100.00;100773.22;1587397;90;20626;-80
2021/10/14 07:17:09;;;;;;;;;;;;;;;5.15;100.00;100772.80;1587448;88;20181;-80
2021/10/14 07:19:36;;;;;;;;;;;;;;;5.22;100.00;100784.53;1587831;89;21986;-81
2021/10/14 07:22:05;;;;;;;;;;;;;;;5.28;100.00;100780.63;1587018;89;20208;-81
2021/10/14 07:24:33;;;;;;;;;;;;;;;5.32;100.00;100779.01;1588055;89;20234;-82
2021/10/14 07:27:00;;;;;;;;;;;;;;;5.40;100.00;100782.41;1563764;90;20189;-81
2021/10/14 07:29:26;;;;;;;;;;;;;;;5.54;100.00;100770.95;1585539;88;20209;-81
2021/10/14 07:31:54;;;;;;;;;;;;;;;5.67;100.00;100777.02;1590191;88;21210;-82
2021/10/14 07:34:19;;;;;;;;;;;;;;;5.74;100.00;100786.09;1588127;89;20142;-81
2021/10/14 07:36:51;;;;;;;;;;;;;;;5.80;100.00;100779.59;1584370;89;20189;-80
2021/10/14 07:39:21;;;;;;;;;;;;;;;5.87;100.00;100782.15;1586201;88;20174;-79
2021/10/14 07:41:52;;;;;;;;;;;;;;;5.96;100.00;100779.32;1586852;89;20186;-80
2021/10/14 07:44:22;;;;;;;;;;;;;;;5.95;100.00;100781.59;1588870;89;21237;-81
2021/10/14 07:46:50;;;;;;;;;;;;;;;6.00;100.00;100778.20;1566480;89;20155;-79
2021/10/14 07:49:16;;;;;;;;;;;;;;;6.09;100.00;100784.08;1587087;89;20160;-82
2021/10/14 07:51:41;;;;;;;;;;;;;;;6.09;100.00;100777.53;1587110;89;20819;-81
2021/10/14 07:54:07;;;;;;;;;;;;;;;6.13;100.00;100783.38;1567495;90;20205;-79
2021/10/14 07:56:33;;;;;;;;;;;;;;;6.19;100.00;100779.48;1588011;88;21177;-80
2021/10/14 07:59:02;;;;;;;;;;;;;;;6.28;100.00;100774.88;1586212;89;20347;-80
2021/10/14 08:01:30;;;;;;;;;;;;;;;6.37;100.00;100780.75;1586983;89;20220;-80
2021/10/14 08:03:55;;;;;;;;;;;;;;;6.46;100.00;100779.22;1605128;87;20980;-81
2021/10/14 08:06:23;;;;;;;;;;;;;;;6.47;100.00;100780.41;1612828;87;20265;-81
2021/10/14 08:08:50;;;;;;;;;;;;;;;6.59;100.00;100776.53;1590139;87;21132;-81
2021/10/14 08:11:16;;;;;;;;;;;;;;;6.62;99.81;100776.30;1611814;87;21026;-80
2021/10/14 08:13:43;;;;;;;;;;;;;;;6.71;100.00;100772.99;1614422;87;20173;-80
2021/10/14 08:16:10;;;;;;;;;;;;;;;6.81;100.00;100774.44;1610306;87;20796;-81
2021/10/14 08:18:36;;;;;;;;;;;;;;;6.89;100.00;100777.80;1614564;87;20216;-80
2021/10/14 08:21:02;;;;;;;;;;;;;;;7.00;100.00;100780.42;1610918;87;21187;-79
2021/10/14 08:23:30;;;;;;;;;;;;;;;7.05;100.00;100779.59;1611522;87;20829;-81
2021/10/14 08:25:59;;;;;;;;;;;;;;;7.22;100.00;100779.60;1612241;87;20126;-77
2021/10/14 08:28:26;;;;;;;;;;;;;;;7.37;100.00;100777.09;1610107;87;20309;-81
2021/10/14 08:30:53;;;;;;;;;;;;;;;7.51;99.60;100769.45;1611561;87;20155;-80
2021/10/14 08:33:22;;;;;;;;;;;;;;;7.61;99.47;100770.86;1590598;87;20990;-81
2021/10/14 08:35:47;;;;;;;;;;;;;;;7.76;98.88;100764.05;1614824;86;20206;-81
2021/10/14 08:38:17;;;;;;;;;;;;;;;7.89;98.27;100762.09;1611830;87;21163;-80
2021/10/14 08:40:44;;;;;;;;;;;;;;;7.98;97.29;100765.78;1612118;87;20162;-77
2021/10/14 08:43:14;;;;;;;;;;;;;;;7.98;96.33;100757.89;1613513;87;20189;-79
2021/10/14 08:45:42;;;;;;;;;;;;;;;8.06;96.36;100760.72;1611838;87;21343;-80
2021/10/14 08:48:08;;;;;;;;;;;;;;;8.13;96.42;100756.64;1612260;87;20349;-79
2021/10/14 08:50:39;;;;;;;;;;;;;;;8.15;94.81;100760.47;1615476;87;20288;-80
2021/10/14 08:53:05;;;;;;;;;;;;;;;8.07;92.46;100763.72;1617026;87;20189;-79
2021/10/14 08:55:32;;;;;;;;;;;;;;;8.14;93.29;100758.78;1613651;87;21213;-81
2021/10/14 08:58:01;;;;;;;;;;;;;;;8.18;93.82;100751.83;1616250;87;21127;-82
2021/10/14 09:00:26;;;;;;;;;;;;;;;8.25;93.77;100745.12;1617715;87;20234;-78
2021/10/14 09:02:54;;;;;;;;;;;;;;;8.25;93.20;100741.17;1595880;87;20269;-79
2021/10/14 09:05:20;;;;;;;;;;;;;;;8.40;93.58;100742.17;1628008;87;20170;-80
2021/10/14 09:07:50;;;;;;;;;;;;;;;8.45;92.48;100742.64;1624242;86;20143;-80
2021/10/14 09:10:19;;;;;;;;;;;;;;;8.50;92.09;100737.85;1622288;87;21141;-80
2021/10/14 09:12:47;;;;;;;;;;;;;;;8.44;90.99;100728.66;1622235;87;20173;-79
2021/10/14 09:15:16;;;;;;;;;;;;;;;8.50;89.92;100728.64;1624310;87;20203;-80
2021/10/14 09:17:46;;;;;;;;;;;;;;;8.66;90.60;100728.67;1572879;88;20611;-79
2021/10/14 09:20:38;;;;;;;;;;;;;;;8.75;90.98;100725.27;1618935;87;20184;-81
2021/10/14 09:23:08;;;;;;;;;;;;;;;8.84;90.24;100719.22;1615467;87;21056;-82
2021/10/14 09:25:43;;;;;;;;;;;;;;;8.92;88.57;100716.75;1623615;87;20106;-83
2021/10/14 09:28:20;;;;;;;;;;;;;;;8.91;84.83;100719.52;1623487;87;20528;-82
2021/10/14 09:30:56;;;;;;;;;;;;;;;9.00;87.15;100715.27;1599198;87;20176;-80
2021/10/14 09:33:42;;;;;;;;;;;;;;;9.04;86.00;100717.97;1628890;87;20323;-83
2021/10/14 09:36:31;;;;;;;;;;;;;;;9.16;85.89;100716.42;1624688;87;21542;-81
2021/10/14 09:39:06;;;;;;;;;;;;;;;9.24;85.02;100716.25;1600347;87;20148;-80
2021/10/14 09:41:39;;;;;;;;;;;;;;;9.36;84.83;100715.67;1619290;87;20212;-79
2021/10/14 09:44:13;;;;;;;;;;;;;;;9.37;83.87;100707.63;1626077;87;20159;-81
2021/10/14 09:46:37;;;;;;;;;;;;;;;9.47;82.98;100707.65;1626290;87;20328;-79
2021/10/14 09:49:11;;;;;;;;;;;;;;;9.45;82.47;100705.64;1624352;86;21123;-79
2021/10/14 09:51:38;;;;;;;;;;;;;;;9.54;82.99;100708.78;1625692;87;20185;-79
2021/10/14 09:54:06;;;;;;;;;;;;;;;9.55;80.13;100706.47;1622494;87;20223;-79
2021/10/14 09:56:32;;;;;;;;;;;;;;;9.52;77.14;100700.16;1624807;87;20706;-80
2021/10/14 09:59:01;;;;;;;;;;;;;;;9.61;77.51;100707.25;1624066;87;20259;-80
2021/10/14 10:01:29;;;;;;;;;;;;;;;9.58;76.64;100711.97;1621381;87;20169;-79
2021/10/14 10:03:58;;;;;;;;;;;;;;;9.67;76.10;100709.34;1625591;86;20167;-80
2021/10/14 10:06:28;;;;;;;;;;;;;;;9.84;76.49;100699.11;1634137;86;20166;-80
2021/10/14 10:09:00;;;;;;;;;;;;;;;9.92;75.26;100696.59;1631418;86;20202;-81
2021/10/14 10:11:27;;;;;;;;;;;;;;;9.81;75.47;100696.74;1610632;88;20221;-81
2021/10/14 10:13:55;;;;;;;;;;;;;;;9.79;75.50;100686.80;1622299;86;21062;-80
2021/10/14 10:16:25;;;;;;;;;;;;;;;10.00;75.82;100694.09;1603131;87;20193;-81
2021/10/14 10:18:54;;;;;;;;;;;;;;;10.22;75.74;100689.50;1628140;86;20143;-79
2021/10/14 10:21:41;;;;;;;;;;;;;;;10.33;74.35;100688.08;1628613;86;20607;-80
2021/10/14 10:24:17;;;;;;;;;;;;;;;10.53;73.56;100695.95;1629490;86;20219;-80
2021/10/14 10:29:37;;;;;;;;;;;;;;;10.67;71.28;100677.00;1650684;85;20438;-79
2021/10/14 10:32:06;;;;;;;;;;;;;;;10.96;70.98;100676.89;1615592;86;20191;-80
2021/10/14 10:37:47;;;;;;;;;;;;;;;11.23;68.51;100665.16;1644366;85;20204;-78
2021/10/14 10:40:18;;;;;;;;;;;;;;;11.24;68.15;100665.52;1645138;85;20163;-80
2021/10/14 10:42:56;;;;;;;;;;;;;;;11.22;68.32;100656.91;1646983;85;20211;-83
2021/10/14 10:45:24;;;;;;;;;;;;;;;11.28;68.51;100653.67;1630791;85;20163;-79
2021/10/14 10:47:57;;;;;;;;;;;;;;;11.48;68.36;100661.81;1609179;86;20385;-80
2021/10/14 10:50:35;;;;;;;;;;;;;;;11.45;67.73;100647.56;1640963;86;20203;-81
2021/10/14 10:53:10;;;;;;;;;;;;;;;11.30;67.74;100647.23;1641242;85;21338;-78
2021/10/14 10:55:42;;;;;;;;;;;;;;;11.16;68.13;100648.24;1642913;85;21100;-80
2021/10/14 10:58:09;;;;;;;;;;;;;;;11.03;69.36;100651.20;1638293;85;20623;-78
2021/10/14 11:00:42;;;;;;;;;;;;;;;11.19;69.24;100638.20;1641294;85;20876;-80
2021/10/14 11:03:21;;;;;;;;;;;;;;;11.45;69.15;100640.95;1642099;85;20187;-80
2021/10/14 11:05:50;;;;;;;;;;;;;;;11.52;69.75;100638.53;1645964;86;20656;-82
2021/10/14 11:08:19;;;;;;;;;;;;;;;11.68;69.29;100629.91;1664805;84;20211;-81
2021/10/14 11:10:46;;;;;;;;;;;;;;;11.70;68.59;100638.55;1678507;83;20200;-80
2021/10/14 11:13:13;;;;;;;;;;;;;;;11.64;65.84;100629.89;1678957;83;20184;-79
2021/10/14 11:15:56;;;;;;;;;;;;;;;11.71;66.02;100626.97;1679795;83;20159;-80
2021/10/14 11:18:23;;;;;;;;;;;;;;;11.75;64.22;100621.72;1678463;83;21142;-79
2021/10/14 11:20:58;;;;;;;;;;;;;;;11.84;63.84;100611.55;1675403;85;20131;-79
2021/10/14 11:23:29;;;;;;;;;;;;;;;11.89;63.35;100611.09;1675967;85;20550;-82
2021/10/14 11:26:04;;;;;;;;;;;;;;;11.91;61.08;100613.58;1675359;85;20213;-81
2021/10/14 11:28:29;;;;;;;;;;;;;;;12.01;60.96;100614.36;1644597;85;20165;-80
2021/10/14 11:31:00;;;;;;;;;;;;;;;11.94;61.93;100610.66;1652264;85;21174;-79
2021/10/14 11:33:32;;;;;;;;;;;;;;;11.86;60.64;100617.51;1648521;85;20130;-81
2021/10/14 11:36:03;;;;;;;;;;;;;;;11.90;60.79;100618.52;1654065;85;20187;-79
2021/10/14 11:38:28;;;;;;;;;;;;;;;11.77;61.57;100608.34;1661037;84;20143;-82
2021/10/14 11:40:57;;;;;;;;;;;;;;;11.88;61.64;100610.73;1654819;85;20201;-80
2021/10/14 11:43:29;;;;;;;;;;;;;;;12.07;61.93;100610.25;1657448;85;20137;-79
2021/10/14 11:46:00;;;;;;;;;;;;;;;11.81;62.08;100610.53;1656284;85;20150;-80
2021/10/14 11:48:39;;;;;;;;;;;;;;;11.72;62.46;100610.63;1656746;85;20150;-78
2021/10/14 11:51:10;;;;;;;;;;;;;;;11.78;62.60;100606.86;1653336;85;20171;-79
2021/10/14 11:53:38;;;;;;;;;;;;;;;11.90;62.78;100603.97;1654958;85;20213;-80
2021/10/14 11:56:05;;;;;;;;;;;;;;;11.79;62.99;100601.92;1654338;85;21088;-79
2021/10/14 11:58:35;;;;;;;;;;;;;;;11.91;62.90;100614.91;1652157;85;20481;-81
2021/10/14 12:01:11;;;;;;;;;;;;;;;11.81;63.27;100595.97;1653185;85;20202;-79
2021/10/14 12:03:38;;;;;;;;;;;;;;;11.90;62.87;100598.67;1657915;85;20200;-77
2021/10/14 12:06:04;;;;;;;;;;;;;;;12.01;63.40;100593.19;1626430;86;20229;-79
2021/10/14 12:08:31;;;;;;;;;;;;;;;11.82;63.13;100592.36;1632283;85;21961;-80
2021/10/14 12:10:58;;;;;;;;;;;;;;;11.73;63.42;100597.23;1652890;85;20209;-78
2021/10/14 12:13:30;;;;;;;;;;;;;;;11.71;62.50;100589.92;1628576;85;20173;-80
2021/10/14 12:16:11;;;;;;;;;;;;;;;11.68;61.56;100606.95;1655037;85;20181;-80
2021/10/14 12:18:38;;;;;;;;;;;;;;;11.49;62.20;100592.05;1656209;85;20122;-80
2021/10/14 12:21:06;;;;;;;;;;;;;;;11.44;61.59;100585.57;1637717;85;21230;-83
2021/10/14 12:23:35;;;;;;;;;;;;;;;11.43;61.87;100595.30;1633466;86;20256;-81
2021/10/14 12:26:18;;;;;;;;;;;;;;;11.31;60.81;100586.77;1647531;85;20656;-83
2021/10/14 12:28:45;;;;;;;;;;;;;;;11.31;61.45;100596.50;1653146;85;20259;-83
2021/10/14 12:31:16;;;;;;;;;;;;;;;11.45;61.47;100591.18;1662076;84;20134;-81
2021/10/14 12:33:43;;;;;;;;;;;;;;;11.40;61.85;100597.42;1661392;85;22379;-82
2021/10/14 12:36:11;;;;;;;;;;;;;;;11.27;61.21;100600.44;1663951;85;20209;-81
2021/10/14 12:38:47;;;;;;;;;;;;;;;11.20;61.86;100585.67;1661676;85;20654;-83
2021/10/14 12:41:16;;;;;;;;;;;;;;;11.28;62.57;100584.93;1658422;84;21105;-83
2021/10/14 12:43:54;;;;;;;;;;;;;;;11.22;63.35;100579.73;1663599;85;20208;-83
2021/10/14 12:46:36;;;;;;;;;;;;;;;11.17;64.84;100592.58;1658681;85;20834;-83
2021/10/14 12:51:50;;;;;;;;;;;;;;;11.10;65.82;100566.39;1659196;85;20776;-82
2021/10/14 12:54:24;;;;;;;;;;;;;;;11.18;66.66;100564.33;1659752;85;20095;-82